createdAt,value
2018-08-18T00:00:11.662Z,95.40
2018-08-18T00:02:39.769Z,95.40
2018-08-18T00:05:09.466Z,95.40
2018-08-18T00:07:37.578Z,95.30
2018-08-18T00:10:07.733Z,95.20
2018-08-18T00:12:35.889Z,95.10
2018-08-18T00:15:05.285Z,95.10
2018-08-18T00:17:33.399Z,95.10
2018-08-18T00:20:01.599Z,95.20
2018-08-18T00:22:29.994Z,95.20
2018-08-18T00:24:59.617Z,95.20
2018-08-18T00:27:28.105Z,95.30
2018-08-18T00:30:31.249Z,95.40
2018-08-18T00:32:59.387Z,95.40
2018-08-18T00:35:27.586Z,95.50
2018-08-18T00:37:55.758Z,95.50
2018-08-18T00:40:23.951Z,95.70
2018-08-18T00:42:52.132Z,95.70
2018-08-18T00:45:20.330Z,96.00
2018-08-18T00:47:48.507Z,96.00
2018-08-18T00:50:35.146Z,96.20
2018-08-18T00:53:04.151Z,96.20
2018-08-18T00:55:32.322Z,96.60
2018-08-18T00:58:00.506Z,96.70
2018-08-18T01:00:28.698Z,96.70
2018-08-18T01:02:58.025Z,96.80
2018-08-18T01:05:26.307Z,96.90
2018-08-18T01:07:54.484Z,97.00
2018-08-18T01:10:22.674Z,97.10
2018-08-18T01:12:50.919Z,97.40
2018-08-18T01:15:24.606Z,97.70
2018-08-18T01:17:52.754Z,97.80
2018-08-18T01:20:20.962Z,97.70
2018-08-18T01:22:54.673Z,97.80
2018-08-18T01:25:23.026Z,97.80
2018-08-18T01:27:52.082Z,97.80
2018-08-18T01:30:20.254Z,98.00
2018-08-18T01:32:48.429Z,98.10
2018-08-18T01:35:16.654Z,98.10
2018-08-18T01:37:44.813Z,98.40
2018-08-18T01:40:12.994Z,98.20
2018-08-18T01:42:41.190Z,98.30
2018-08-18T01:45:09.386Z,98.30
2018-08-18T01:47:37.544Z,98.60
2018-08-18T01:50:11.202Z,98.60
2018-08-18T01:52:39.361Z,98.70
2018-08-18T01:55:08.171Z,98.70
2018-08-18T01:57:36.362Z,98.70
2018-08-18T02:00:25.840Z,99.10
2018-08-18T02:02:53.950Z,98.90
2018-08-18T02:05:22.094Z,98.90
2018-08-18T02:07:50.298Z,99.00
2018-08-18T02:10:18.476Z,99.20
2018-08-18T02:12:59.124Z,99.20
2018-08-18T02:15:27.270Z,99.30
2018-08-18T02:17:55.438Z,99.40
2018-08-18T02:20:23.631Z,99.40
2018-08-18T02:22:51.809Z,99.30
2018-08-18T02:25:19.983Z,99.60
2018-08-18T02:27:48.179Z,99.60
2018-08-18T02:30:18.841Z,99.60
2018-08-18T02:32:47.016Z,99.80
2018-08-18T02:35:15.203Z,99.80
2018-08-18T02:37:43.401Z,99.90
2018-08-18T02:40:16.222Z,99.90
2018-08-18T02:42:44.409Z,99.90
2018-08-18T02:45:13.165Z,99.90
2018-08-18T02:47:41.526Z,99.90
2018-08-18T02:50:10.946Z,99.90
2018-08-18T02:52:39.068Z,99.90
2018-08-18T02:55:09.405Z,99.90
2018-08-18T02:57:41.925Z,99.90
2018-08-18T03:00:14.034Z,99.90
2018-08-18T03:02:42.149Z,99.90
2018-08-18T03:05:10.339Z,99.90
2018-08-18T03:07:46.794Z,99.90
2018-08-18T03:10:20.318Z,99.90
2018-08-18T03:12:48.526Z,99.90
2018-08-18T03:16:06.185Z,99.90
2018-08-18T03:18:45.441Z,99.90
2018-08-18T03:21:13.640Z,99.90
2018-08-18T03:23:53.353Z,99.90
2018-08-18T03:26:26.272Z,99.90
2018-08-18T03:28:54.719Z,99.90
2018-08-18T03:31:22.852Z,99.90
2018-08-18T03:33:51.030Z,99.90
2018-08-18T03:36:27.782Z,99.90
2018-08-18T03:38:56.500Z,99.90
2018-08-18T03:41:25.534Z,99.90
2018-08-18T03:43:54.295Z,99.90
2018-08-18T03:46:22.426Z,99.90
2018-08-18T03:48:51.126Z,99.90
2018-08-18T03:51:19.721Z,99.90
2018-08-18T03:53:47.893Z,99.90
2018-08-18T03:56:16.066Z,99.90
2018-08-18T03:58:52.378Z,99.90
2018-08-18T04:02:02.016Z,99.90
2018-08-18T04:04:31.370Z,99.90
2018-08-18T04:07:00.306Z,99.90
2018-08-18T04:09:29.565Z,99.90
2018-08-18T04:11:58.119Z,99.90
2018-08-18T04:14:29.522Z,99.90
2018-08-18T04:16:57.910Z,99.90
2018-08-18T04:19:26.098Z,99.90
2018-08-18T04:21:54.900Z,99.90
2018-08-18T04:24:25.085Z,99.90
2018-08-18T04:26:53.205Z,99.90
2018-08-18T04:29:21.926Z,99.90
2018-08-18T04:31:50.082Z,99.90
2018-08-18T04:34:18.280Z,99.90
2018-08-18T04:36:46.450Z,99.90
2018-08-18T04:39:14.765Z,99.90
2018-08-18T04:41:43.264Z,99.90
2018-08-18T04:44:11.463Z,99.90
2018-08-18T04:46:39.638Z,99.90
2018-08-18T04:49:07.802Z,99.90
2018-08-18T04:51:35.982Z,99.90
2018-08-18T04:54:04.610Z,99.90
2018-08-18T04:56:32.782Z,99.90
2018-08-18T04:59:00.970Z,99.90
2018-08-18T05:01:29.149Z,99.90
2018-08-18T05:04:06.366Z,99.90
2018-08-18T05:06:35.674Z,99.90
2018-08-18T05:09:05.670Z,99.90
2018-08-18T05:11:33.774Z,99.90
2018-08-18T05:14:01.962Z,99.90
2018-08-18T05:16:30.042Z,99.90
2018-08-18T05:18:58.246Z,99.90
2018-08-18T05:21:26.441Z,99.90
2018-08-18T05:23:54.654Z,99.90
2018-08-18T05:26:23.117Z,99.90
2018-08-18T05:28:51.282Z,99.90
2018-08-18T05:31:20.630Z,99.90
2018-08-18T05:33:49.110Z,99.90
2018-08-18T05:36:17.378Z,99.50
2018-08-18T05:38:45.462Z,99.30
2018-08-18T05:41:13.658Z,99.00
2018-08-18T05:43:41.843Z,98.80
2018-08-18T05:46:10.338Z,98.50
2018-08-18T05:48:38.515Z,98.30
2018-08-18T05:51:06.713Z,98.10
2018-08-18T05:53:35.448Z,97.90
2018-08-18T05:56:04.155Z,97.50
2018-08-18T05:58:49.893Z,97.50
2018-08-18T06:01:26.914Z,97.50
2018-08-18T06:04:00.368Z,97.60
2018-08-18T06:06:28.506Z,97.60
2018-08-18T06:08:56.696Z,96.80
2018-08-18T06:11:24.899Z,96.80
2018-08-18T06:13:53.010Z,96.50
2018-08-18T06:16:21.156Z,96.70
2018-08-18T06:18:49.334Z,97.70
2018-08-18T06:21:17.526Z,97.10
2018-08-18T06:23:46.753Z,96.60
2018-08-18T06:26:14.934Z,96.30
2018-08-18T06:28:43.113Z,96.90
2018-08-18T06:31:11.210Z,96.40
2018-08-18T06:33:39.392Z,96.50
2018-08-18T06:36:07.563Z,97.30
2018-08-18T06:38:35.754Z,97.50
2018-08-18T06:41:04.170Z,97.20
2018-08-18T06:43:33.568Z,96.90
2018-08-18T06:46:02.070Z,96.20
2018-08-18T06:48:32.814Z,96.00
2018-08-18T06:52:04.243Z,95.80
2018-08-18T06:54:32.438Z,95.10
2018-08-18T06:57:00.685Z,95.00
2018-08-18T06:59:28.725Z,95.40
2018-08-18T07:01:56.921Z,95.40
2018-08-18T07:04:27.066Z,95.90
2018-08-18T07:06:55.158Z,95.30
2018-08-18T07:09:23.314Z,94.90
2018-08-18T07:11:51.515Z,95.00
2018-08-18T07:14:19.703Z,95.40
2018-08-18T07:16:47.835Z,94.00
2018-08-18T07:19:15.980Z,93.80
2018-08-18T07:21:44.175Z,94.20
2018-08-18T07:24:12.362Z,94.10
2018-08-18T07:26:40.625Z,93.80
2018-08-18T07:29:08.945Z,94.50
2018-08-18T07:31:36.910Z,93.80
2018-08-18T07:35:08.606Z,94.00
2018-08-18T07:37:36.848Z,93.60
2018-08-18T07:40:06.762Z,94.00
2018-08-18T07:42:34.884Z,93.60
2018-08-18T07:45:03.086Z,92.70
2018-08-18T07:47:33.748Z,92.90
2018-08-18T07:50:03.660Z,92.30
2018-08-18T07:52:31.862Z,92.50
2018-08-18T07:55:00.014Z,92.00
2018-08-18T07:57:29.154Z,92.30
2018-08-18T07:59:59.838Z,91.60
2018-08-18T08:02:28.798Z,92.50
2018-08-18T08:04:57.719Z,90.90
2018-08-18T08:07:26.099Z,90.70
2018-08-18T08:09:54.250Z,91.20
2018-08-18T08:12:22.512Z,90.70
2018-08-18T08:14:50.622Z,91.10
2018-08-18T08:17:18.852Z,89.50
2018-08-18T08:19:47.014Z,90.30
2018-08-18T08:22:15.206Z,90.30
2018-08-18T08:24:43.440Z,89.90
2018-08-18T08:27:11.850Z,89.80
2018-08-18T08:29:40.185Z,88.90
2018-08-18T08:32:09.714Z,88.10
2018-08-18T08:34:42.102Z,89.20
2018-08-18T08:37:11.210Z,86.60
2018-08-18T08:39:39.411Z,86.80
2018-08-18T08:42:07.572Z,86.70
2018-08-18T08:44:35.775Z,88.00
2018-08-18T08:47:09.592Z,88.00
2018-08-18T08:49:37.779Z,87.20
2018-08-18T08:52:06.674Z,88.30
2018-08-18T08:54:36.080Z,85.00
2018-08-18T08:57:06.937Z,86.50
2018-08-18T08:59:36.248Z,88.00
2018-08-18T09:02:06.173Z,85.60
2018-08-18T09:04:34.870Z,87.30
2018-08-18T09:07:05.363Z,85.90
2018-08-18T09:09:33.482Z,83.80
2018-08-18T09:12:01.657Z,79.90
2018-08-18T09:14:29.890Z,80.10
2018-08-18T09:16:58.065Z,82.90
2018-08-18T09:19:26.230Z,82.70
2018-08-18T09:22:00.850Z,86.20
2018-08-18T09:24:30.193Z,80.30
2018-08-18T09:27:02.916Z,82.10
2018-08-18T09:29:39.176Z,81.70
2018-08-18T09:32:07.352Z,85.80
2018-08-18T09:34:41.583Z,82.90
2018-08-18T09:37:09.753Z,80.30
2018-08-18T09:39:37.941Z,75.70
2018-08-18T09:42:08.201Z,80.70
2018-08-18T09:44:40.023Z,83.00
2018-08-18T09:47:08.138Z,75.40
2018-08-18T09:49:36.319Z,74.40
2018-08-18T09:52:05.308Z,73.50
2018-08-18T09:54:33.538Z,79.60
2018-08-18T09:57:01.698Z,77.30
2018-08-18T09:59:30.338Z,79.30
2018-08-18T10:01:58.489Z,76.10
2018-08-18T10:04:26.969Z,72.00
2018-08-18T10:06:55.909Z,73.80
2018-08-18T10:09:24.502Z,71.60
2018-08-18T10:11:52.804Z,72.60
2018-08-18T10:14:20.998Z,74.20
2018-08-18T10:16:49.354Z,73.50
2018-08-18T10:19:17.534Z,68.90
2018-08-18T10:21:46.389Z,68.00
2018-08-18T10:24:14.531Z,68.30
2018-08-18T10:26:45.647Z,66.40
2018-08-18T10:29:16.610Z,66.30
2018-08-18T10:31:48.324Z,68.50
2018-08-18T10:34:18.059Z,70.30
2018-08-18T10:36:48.894Z,67.30
2018-08-18T10:39:17.065Z,69.90
2018-08-18T10:41:56.998Z,63.30
2018-08-18T10:44:25.380Z,62.70
2018-08-18T10:47:26.698Z,61.60
2018-08-18T10:50:06.206Z,63.00
2018-08-18T10:52:46.014Z,58.90
2018-08-18T10:55:15.374Z,55.90
2018-08-18T10:57:57.273Z,56.10
2018-08-18T11:00:26.855Z,54.80
2018-08-18T11:02:56.166Z,55.10
2018-08-18T11:05:25.295Z,53.10
2018-08-18T11:08:07.429Z,56.70
2018-08-18T11:10:37.058Z,57.30
2018-08-18T11:13:05.185Z,52.10
2018-08-18T11:15:33.376Z,50.00
2018-08-18T11:18:01.578Z,55.60
2018-08-18T11:20:32.121Z,50.90
2018-08-18T11:23:06.909Z,48.40
2018-08-18T11:25:41.190Z,51.70
2018-08-18T11:28:10.283Z,47.80
2018-08-18T11:30:38.914Z,53.00
2018-08-18T11:33:07.233Z,46.50
2018-08-18T11:35:35.675Z,49.80
2018-08-18T11:38:12.353Z,51.10
2018-08-18T11:40:40.538Z,46.90
2018-08-18T11:43:10.158Z,46.30
2018-08-18T11:45:39.288Z,43.90
2018-08-18T11:48:12.478Z,44.90
2018-08-18T11:50:40.983Z,44.80
2018-08-18T11:53:12.708Z,42.80
2018-08-18T11:55:41.446Z,43.00
2018-08-18T11:58:13.113Z,41.40
2018-08-18T12:00:54.340Z,46.80
2018-08-18T12:03:24.950Z,43.50
2018-08-18T12:05:54.171Z,42.10
2018-08-18T12:08:23.586Z,39.70
2018-08-18T12:10:53.193Z,42.20
2018-08-18T12:13:27.326Z,41.30
2018-08-18T12:16:01.466Z,39.00
2018-08-18T12:18:31.581Z,38.40
2018-08-18T12:21:03.946Z,41.00
2018-08-18T12:23:33.699Z,38.00
2018-08-18T12:26:08.030Z,37.20
2018-08-18T12:28:41.602Z,37.90
2018-08-18T12:31:11.266Z,36.90
2018-08-18T12:33:39.487Z,36.80
2018-08-18T12:36:07.695Z,38.40
2018-08-18T12:38:36.032Z,37.70
2018-08-18T12:41:05.037Z,36.40
2018-08-18T12:43:35.191Z,37.00
2018-08-18T12:46:04.526Z,36.10
2018-08-18T12:48:35.253Z,36.70
2018-08-18T12:51:04.123Z,34.60
2018-08-18T12:53:36.538Z,35.10
2018-08-18T12:56:04.753Z,34.70
2018-08-18T12:58:32.949Z,35.30
2018-08-18T13:01:01.185Z,34.70
2018-08-18T13:03:29.353Z,36.90
2018-08-18T13:05:57.786Z,34.30
2018-08-18T13:08:25.962Z,36.40
2018-08-18T13:10:54.861Z,34.00
2018-08-18T13:13:23.336Z,33.70
2018-08-18T13:22:51.815Z,35.80
2018-08-18T13:25:20.029Z,34.00
2018-08-18T13:32:47.543Z,33.90
2018-08-18T13:35:15.929Z,33.90
2018-08-18T13:37:44.094Z,33.30
2018-08-18T13:40:12.927Z,33.70
2018-08-18T13:42:41.512Z,33.10
2018-08-18T13:45:10.523Z,32.30
2018-08-18T13:47:38.801Z,33.10
2018-08-18T13:50:12.782Z,32.30
2018-08-18T13:52:46.300Z,32.30
2018-08-18T13:55:14.410Z,33.30
2018-08-18T13:57:42.598Z,32.40
2018-08-18T14:00:13.222Z,31.90
2018-08-18T14:02:41.870Z,32.50
2018-08-18T14:05:15.890Z,32.80
2018-08-18T14:07:57.108Z,31.80
2018-08-18T14:10:25.277Z,32.30
2018-08-18T14:12:54.262Z,32.80
2018-08-18T14:15:22.859Z,32.10
2018-08-18T14:17:58.234Z,32.40
2018-08-18T14:20:26.536Z,33.40
2018-08-18T14:22:58.932Z,32.60
2018-08-18T14:25:27.059Z,33.20
2018-08-18T14:28:02.346Z,32.40
2018-08-18T14:30:32.313Z,33.10
2018-08-18T14:33:00.554Z,34.00
2018-08-18T14:35:28.726Z,33.10
2018-08-18T14:37:56.901Z,32.40
2018-08-18T14:40:25.094Z,34.30
2018-08-18T14:42:53.297Z,35.50
2018-08-18T14:45:22.919Z,35.50
2018-08-18T14:47:51.318Z,31.60
2018-08-18T14:50:22.853Z,33.70
2018-08-18T14:52:51.050Z,32.70
2018-08-18T14:55:19.226Z,32.60
2018-08-18T14:57:55.757Z,32.10
2018-08-18T15:00:24.154Z,31.90
2018-08-18T15:02:52.306Z,31.30
2018-08-18T15:05:20.501Z,31.20
2018-08-18T15:07:55.042Z,32.10
2018-08-18T15:10:35.716Z,33.90
2018-08-18T15:13:04.531Z,30.90
2018-08-18T15:15:33.524Z,30.90
2018-08-18T15:18:02.954Z,30.90
2018-08-18T15:20:33.274Z,30.80
2018-08-18T15:23:02.027Z,30.80
2018-08-18T15:25:31.081Z,30.60
2018-08-18T15:28:02.250Z,31.20
2018-08-18T15:30:30.399Z,32.50
2018-08-18T15:32:58.694Z,30.60
2018-08-18T15:35:27.182Z,32.80
2018-08-18T15:37:56.114Z,33.40
2018-08-18T15:40:26.006Z,32.10
2018-08-18T15:42:54.225Z,30.80
2018-08-18T15:45:22.398Z,30.50
2018-08-18T15:47:50.685Z,30.20
2018-08-18T15:50:18.906Z,32.20
2018-08-18T15:52:48.345Z,32.20
2018-08-18T15:55:16.845Z,31.10
2018-08-18T15:57:44.965Z,31.20
2018-08-18T16:00:26.278Z,32.30
2018-08-18T16:02:54.978Z,31.80
2018-08-18T16:05:23.146Z,31.70
2018-08-18T16:07:51.874Z,31.50
2018-08-18T16:10:20.045Z,32.00
2018-08-18T16:12:48.558Z,32.80
2018-08-18T16:15:16.725Z,32.70
2018-08-18T16:17:44.926Z,33.00
2018-08-18T16:20:18.089Z,32.50
2018-08-18T16:22:46.185Z,32.60
2018-08-18T16:25:25.809Z,33.70
2018-08-18T16:27:53.936Z,33.40
2018-08-18T16:30:23.155Z,33.50
2018-08-18T16:33:09.370Z,33.50
2018-08-18T16:35:38.881Z,33.20
2018-08-18T16:38:07.414Z,33.40
2018-08-18T16:40:35.877Z,35.40
2018-08-18T16:43:05.403Z,36.20
2018-08-18T16:45:33.886Z,34.80
2018-08-18T16:48:02.862Z,35.90
2018-08-18T16:50:31.489Z,36.50
2018-08-18T16:53:01.567Z,40.00
2018-08-18T16:55:30.782Z,35.90
2018-08-18T16:57:59.233Z,35.50
2018-08-18T17:00:27.406Z,35.40
2018-08-18T17:02:55.591Z,38.20
2018-08-18T17:05:23.775Z,41.70
2018-08-18T17:07:51.980Z,43.10
2018-08-18T17:10:20.154Z,43.60
2018-08-18T17:12:48.335Z,41.80
2018-08-18T17:15:16.510Z,39.00
2018-08-18T17:17:44.836Z,37.60
2018-08-18T17:20:13.029Z,36.60
2018-08-18T17:22:42.188Z,36.40
2018-08-18T17:25:10.513Z,37.00
2018-08-18T17:27:38.666Z,37.50
2018-08-18T17:30:07.059Z,37.20
2018-08-18T17:32:35.145Z,37.70
2018-08-18T17:35:03.526Z,39.90
2018-08-18T17:37:31.646Z,40.70
2018-08-18T17:39:59.859Z,39.70
2018-08-18T17:42:28.037Z,41.30
2018-08-18T17:44:56.202Z,38.50
2018-08-18T17:47:24.382Z,41.40
2018-08-18T17:49:55.457Z,38.50
2018-08-18T17:52:23.745Z,38.10
2018-08-18T17:55:08.933Z,42.20
2018-08-18T17:57:37.834Z,42.50
2018-08-18T18:00:14.008Z,45.50
2018-08-18T18:02:47.678Z,44.20
2018-08-18T18:05:18.639Z,43.40
2018-08-18T18:07:46.762Z,43.00
2018-08-18T18:10:16.042Z,41.60
2018-08-18T18:12:44.246Z,42.90
2018-08-18T18:15:32.425Z,44.00
2018-08-18T18:18:00.624Z,45.20
2018-08-18T18:20:30.541Z,45.40
2018-08-18T18:22:58.712Z,47.00
2018-08-18T18:25:27.014Z,46.80
2018-08-18T18:27:55.170Z,46.60
2018-08-18T18:30:25.978Z,47.20
2018-08-18T18:32:54.238Z,47.50
2018-08-18T18:35:23.654Z,47.80
2018-08-18T18:37:52.158Z,49.30
2018-08-18T18:40:20.326Z,48.60
2018-08-18T18:42:48.517Z,48.80
2018-08-18T18:45:16.681Z,47.70
2018-08-18T18:47:45.601Z,48.40
2018-08-18T18:50:15.338Z,49.40
2018-08-18T18:52:43.637Z,49.80
2018-08-18T18:55:11.853Z,49.70
2018-08-18T18:57:52.388Z,49.60
2018-08-18T19:00:20.557Z,49.60
2018-08-18T19:02:48.818Z,50.40
2018-08-18T19:05:22.638Z,51.00
2018-08-18T19:07:58.702Z,52.10
2018-08-18T19:10:26.818Z,55.20
2018-08-18T19:12:56.410Z,55.40
2018-08-18T19:15:25.374Z,55.10
2018-08-18T19:17:53.526Z,55.20
2018-08-18T19:20:25.529Z,54.90
2018-08-18T19:23:02.721Z,54.80
2018-08-18T19:25:31.357Z,55.00
2018-08-18T19:27:59.601Z,56.80
2018-08-18T19:30:27.782Z,56.80
2018-08-18T19:32:55.955Z,55.90
2018-08-18T19:36:01.399Z,55.20
2018-08-18T19:38:29.512Z,56.40
2018-08-18T19:40:57.715Z,56.20
2018-08-18T19:43:26.982Z,55.10
2018-08-18T19:45:55.653Z,56.00
2018-08-18T19:48:27.812Z,56.30
2018-08-18T19:51:01.583Z,55.50
2018-08-18T19:53:31.877Z,55.90
2018-08-18T19:56:01.006Z,54.60
2018-08-18T19:58:29.714Z,55.50
2018-08-18T20:00:57.838Z,55.10
2018-08-18T20:03:26.359Z,56.00
2018-08-18T20:05:54.651Z,55.70
2018-08-18T20:08:24.161Z,56.00
2018-08-18T20:10:56.351Z,56.10
2018-08-18T20:13:25.757Z,56.60
2018-08-18T20:15:55.313Z,56.90
2018-08-18T20:18:23.495Z,57.00
2018-08-18T20:20:51.632Z,56.90
2018-08-18T20:23:20.753Z,56.90
2018-08-18T20:25:49.527Z,57.60
2018-08-18T20:28:17.629Z,58.20
2018-08-18T20:30:45.822Z,58.50
2018-08-18T20:33:13.990Z,58.80
2018-08-18T20:35:42.190Z,59.00
2018-08-18T20:38:10.366Z,58.10
2018-08-18T20:40:38.577Z,58.30
2018-08-18T20:43:06.772Z,58.70
2018-08-18T20:45:42.125Z,58.60
2018-08-18T20:48:13.026Z,59.50
2018-08-18T20:50:41.154Z,59.90
2018-08-18T20:53:13.238Z,59.60
2018-08-18T20:55:43.173Z,60.10
2018-08-18T20:58:11.550Z,61.70
2018-08-18T21:00:40.770Z,62.80
2018-08-18T21:03:09.198Z,62.50
2018-08-18T21:05:37.329Z,62.60
2018-08-18T21:08:14.784Z,62.80
2018-08-18T21:10:42.948Z,62.90
2018-08-18T21:13:11.106Z,64.00
2018-08-18T21:15:39.298Z,65.20
2018-08-18T21:18:22.269Z,65.70
2018-08-18T21:20:50.488Z,65.20
2018-08-18T21:23:19.129Z,66.60
2018-08-18T21:25:50.094Z,67.50
2018-08-18T21:28:19.189Z,68.00
2018-08-18T21:30:47.585Z,69.60
2018-08-18T21:33:15.750Z,70.00
2018-08-18T21:35:43.973Z,70.50
2018-08-18T21:38:12.250Z,70.90
2018-08-18T21:40:40.549Z,71.40
2018-08-18T21:43:18.900Z,72.30
2018-08-18T21:45:47.038Z,73.20
2018-08-18T21:48:15.206Z,73.90
2018-08-18T21:50:43.678Z,74.70
2018-08-18T21:53:13.913Z,75.00
2018-08-18T21:55:42.022Z,75.40
2018-08-18T21:58:10.233Z,76.10
2018-08-18T22:00:46.686Z,76.70
2018-08-18T22:03:15.025Z,77.60
2018-08-18T22:05:43.178Z,78.70
2018-08-18T22:08:11.383Z,79.40
2018-08-18T22:10:43.782Z,80.00
2018-08-18T22:13:11.950Z,81.20
2018-08-18T22:15:40.130Z,82.10
2018-08-18T22:18:08.331Z,82.00
2018-08-18T22:20:36.488Z,82.40
2018-08-18T22:23:07.422Z,82.80
2018-08-18T22:25:35.554Z,83.60
2018-08-18T22:28:03.718Z,85.30
2018-08-18T22:30:31.910Z,85.10
2018-08-18T22:33:00.198Z,85.60
2018-08-18T22:35:28.278Z,85.80
2018-08-18T22:37:56.474Z,85.90
2018-08-18T22:40:24.653Z,85.70
2018-08-18T22:42:52.846Z,86.50
2018-08-18T22:45:25.038Z,86.90
2018-08-18T22:47:53.206Z,87.90
2018-08-18T22:50:21.381Z,88.10
2018-08-18T22:52:51.552Z,88.40
2018-08-18T22:55:19.829Z,88.40
2018-08-18T22:57:52.399Z,88.80
2018-08-18T23:00:21.159Z,89.10
2018-08-18T23:02:49.301Z,89.90
2018-08-18T23:05:18.006Z,90.10
2018-08-18T23:07:49.126Z,90.20
2018-08-18T23:10:17.233Z,90.70
2018-08-18T23:12:45.421Z,90.70
2018-08-18T23:15:13.602Z,91.00
2018-08-18T23:17:41.792Z,90.90
2018-08-18T23:20:09.978Z,90.90
2018-08-18T23:22:52.534Z,91.20
2018-08-18T23:25:21.221Z,91.00
2018-08-18T23:27:49.522Z,90.90
2018-08-18T23:30:23.094Z,91.00
2018-08-18T23:32:51.297Z,90.90
2018-08-18T23:35:20.699Z,90.90
2018-08-18T23:37:48.798Z,91.00
2018-08-18T23:40:16.975Z,91.30
2018-08-18T23:42:45.182Z,91.10
2018-08-18T23:45:13.337Z,91.50
2018-08-18T23:47:41.462Z,91.30
2018-08-18T23:50:09.651Z,91.50
2018-08-18T23:52:53.094Z,91.70
2018-08-18T23:55:21.482Z,91.60
2018-08-18T23:57:50.463Z,91.70
